Time;durP1;ratioP1;P1;durP2;ratioP2;P2;SDS_P1;SDS_P2;PMS_P1;PMS_P2;Temp;Humidity;BMP_temperature;BMP_pressure;BME280_temperature;BME280_humidity;BME280_pressure;Samples;Min_cycle;Max_cycle;Signal;HPM_P1;HPM_P2
2022/08/24 00:01:58;;;;;;;2.65;1.63;;;25.80;93.10;;;;;;5109792;27;20209;-39
2022/08/24 00:04:26;;;;;;;2.03;1.83;;;25.80;93.10;;;;;;5129309;27;20208;-40
2022/08/24 00:07:07;;;;;;;2.50;2.30;;;25.80;93.10;;;;;;5128335;27;20250;-40
2022/08/24 00:09:59;;;;;;;4.97;2.28;;;25.80;93.20;;;;;;5111390;27;20202;-40
2022/08/24 00:12:27;;;;;;;4.60;2.40;;;25.70;93.20;;;;;;5089845;28;20648;-40
2022/08/24 00:14:57;;;;;;;4.20;2.30;;;25.70;93.20;;;;;;5090869;28;20203;-40
2022/08/24 00:17:29;;;;;;;5.00;2.50;;;25.70;93.20;;;;;;5115267;27;20691;-40
2022/08/24 00:19:59;;;;;;;6.57;2.33;;;25.70;93.60;;;;;;5125715;27;20201;-40
2022/08/24 00:22:27;;;;;;;2.10;1.90;;;25.60;93.30;;;;;;5112148;27;20985;-40
2022/08/24 00:24:59;;;;;;;2.65;1.95;;;25.60;93.30;;;;;;5110532;27;20310;-40
2022/08/24 00:27:26;;;;;;;3.72;2.53;;;25.50;93.30;;;;;;5122834;27;20737;-40
2022/08/24 00:29:58;;;;;;;2.03;1.77;;;25.50;93.30;;;;;;5128539;27;20197;-39
2022/08/24 00:32:28;;;;;;;4.35;2.03;;;25.40;93.40;;;;;;5127215;27;20213;-39
2022/08/24 00:34:55;;;;;;;1.90;1.77;;;25.40;93.50;;;;;;5116002;27;20206;-39
2022/08/24 00:37:30;;;;;;;4.63;2.40;;;25.30;93.50;;;;;;5102044;27;20197;-40
2022/08/24 00:40:00;;;;;;;2.33;2.00;;;25.30;93.60;;;;;;5110296;27;20213;-39
2022/08/24 00:42:29;;;;;;;4.03;2.10;;;25.30;93.60;;;;;;5128122;27;20428;-39
2022/08/24 00:44:59;;;;;;;2.30;2.13;;;25.20;93.50;;;;;;5110429;27;20609;-39
2022/08/24 00:47:42;;;;;;;3.00;2.58;;;25.20;93.70;;;;;;5127965;27;20224;-38
2022/08/24 00:50:24;;;;;;;2.60;2.40;;;25.10;94.10;;;;;;5107410;28;20214;-39
2022/08/24 00:52:56;;;;;;;2.55;1.95;;;25.10;93.80;;;;;;5108260;27;20300;-39
2022/08/24 00:55:35;;;;;;;2.35;1.90;;;25.10;93.70;;;;;;5107396;28;20699;-39
2022/08/24 00:58:08;;;;;;;2.55;2.35;;;25.00;93.80;;;;;;5106750;28;20236;-39
2022/08/24 01:00:48;;;;;;;2.88;2.53;;;25.00;93.80;;;;;;5108901;27;20213;-38
2022/08/24 01:03:18;;;;;;;3.85;2.92;;;25.00;93.90;;;;;;5124879;27;20297;-38
2022/08/24 01:05:47;;;;;;;4.07;2.65;;;25.00;93.80;;;;;;5120384;27;20564;-39
2022/08/24 01:08:20;;;;;;;3.20;2.25;;;24.90;93.80;;;;;;5112484;27;20240;-39
2022/08/24 01:10:59;;;;;;;4.80;2.58;;;24.90;94.00;;;;;;5127691;27;20296;-40
2022/08/24 01:13:27;;;;;;;2.65;2.20;;;24.90;94.00;;;;;;5090320;28;20676;-38
2022/08/24 01:16:03;;;;;;;5.18;2.67;;;24.90;94.00;;;;;;5107292;27;20203;-39
2022/08/24 01:18:49;;;;;;;3.28;2.22;;;24.80;94.00;;;;;;5121719;27;20237;-39
2022/08/24 01:21:37;;;;;;;3.15;2.20;;;24.80;94.00;;;;;;5100227;27;20201;-41
2022/08/24 01:24:13;;;;;;;2.35;1.90;;;24.70;94.00;;;;;;5098645;28;20206;-41
2022/08/24 01:26:48;;;;;;;2.30;2.10;;;24.70;94.20;;;;;;5095419;27;20584;-40
2022/08/24 01:29:21;;;;;;;2.25;2.05;;;24.70;94.20;;;;;;5110106;27;20237;-40
2022/08/24 01:31:50;;;;;;;2.38;2.05;;;24.60;94.10;;;;;;5108126;27;20201;-40
2022/08/24 01:34:20;;;;;;;2.90;1.98;;;24.60;94.10;;;;;;5127161;27;20249;-40
2022/08/24 01:36:50;;;;;;;2.30;2.10;;;24.50;94.00;;;;;;5126804;27;20575;-41
2022/08/24 01:39:39;;;;;;;2.55;2.10;;;24.50;94.00;;;;;;5126318;27;20333;-40
2022/08/24 01:42:13;;;;;;;2.33;2.13;;;24.50;94.30;;;;;;5121391;27;20632;-40
2022/08/24 01:44:53;;;;;;;2.78;2.10;;;24.50;94.20;;;;;;5106108;28;20755;-40
2022/08/24 01:47:21;;;;;;;2.90;2.20;;;24.50;94.20;;;;;;5106198;28;20194;-40
2022/08/24 01:49:51;;;;;;;2.70;2.08;;;24.50;94.30;;;;;;5105807;28;20756;-40
2022/08/24 01:52:24;;;;;;;4.22;1.90;;;24.50;94.30;;;;;;5106003;28;20194;-40
2022/08/24 01:54:52;;;;;;;3.03;2.17;;;24.40;94.30;;;;;;5106419;28;20198;-40
2022/08/24 01:57:23;;;;;;;2.40;2.20;;;24.40;94.30;;;;;;5106145;28;20210;-40
2022/08/24 01:59:53;;;;;;;3.45;2.35;;;24.40;94.30;;;;;;5116152;27;20243;-40
2022/08/24 02:02:28;;;;;;;2.67;2.22;;;24.40;94.40;;;;;;5107770;27;20524;-40
2022/08/24 02:04:55;;;;;;;2.50;2.08;;;24.30;94.50;;;;;;5126465;27;20213;-40
2022/08/24 02:07:25;;;;;;;3.67;2.30;;;24.30;94.40;;;;;;5107109;27;20197;-40
2022/08/24 02:09:59;;;;;;;4.75;2.30;;;24.30;94.40;;;;;;5108044;27;20453;-40
2022/08/24 02:12:29;;;;;;;2.33;2.13;;;24.30;94.40;;;;;;5125862;27;20296;-40
2022/08/24 02:15:01;;;;;;;2.40;2.20;;;24.30;94.50;;;;;;5107024;28;20623;-40
2022/08/24 02:17:28;;;;;;;3.17;2.00;;;24.30;94.50;;;;;;5103717;28;20198;-40
2022/08/24 02:19:58;;;;;;;2.20;2.00;;;24.30;94.50;;;;;;5126108;28;20229;-40
2022/08/24 02:22:25;;;;;;;3.00;2.13;;;24.30;94.50;;;;;;5136979;27;20304;-39
2022/08/24 02:24:53;;;;;;;2.90;2.00;;;24.30;94.60;;;;;;5138807;27;20279;-40
2022/08/24 02:27:20;;;;;;;3.53;2.33;;;24.20;94.60;;;;;;5118278;27;20663;-41
2022/08/24 02:29:49;;;;;;;2.50;2.30;;;24.20;94.50;;;;;;5129989;27;20197;-40
2022/08/24 02:32:17;;;;;;;2.83;1.95;;;24.20;94.50;;;;;;5130713;27;20221;-40
2022/08/24 02:34:46;;;;;;;2.95;2.05;;;24.20;94.60;;;;;;5110800;27;20198;-41
2022/08/24 02:37:18;;;;;;;3.75;2.47;;;24.10;94.50;;;;;;5109395;28;20224;-40
2022/08/24 02:39:45;;;;;;;3.08;2.83;;;24.10;94.60;;;;;;5123907;27;20223;-40
2022/08/24 02:42:14;;;;;;;2.45;1.92;;;24.10;94.60;;;;;;5130029;27;20205;-40
2022/08/24 02:44:46;;;;;;;3.70;2.00;;;24.10;94.60;;;;;;5129922;27;20193;-41
2022/08/24 02:47:17;;;;;;;3.67;2.42;;;24.00;94.60;;;;;;5111090;27;20213;-40
2022/08/24 02:49:44;;;;;;;2.88;2.10;;;24.00;94.70;;;;;;5109323;27;20231;-40
2022/08/24 02:52:13;;;;;;;2.40;2.20;;;24.00;94.70;;;;;;5108787;28;20194;-40
2022/08/24 02:54:41;;;;;;;2.65;1.92;;;24.00;94.70;;;;;;5109636;28;20194;-40
2022/08/24 02:57:10;;;;;;;2.53;2.20;;;23.90;94.70;;;;;;5109276;28;20309;-40
2022/08/24 02:59:43;;;;;;;4.72;2.35;;;23.90;94.80;;;;;;5109082;28;20238;-40
2022/08/24 03:02:10;;;;;;;2.33;2.00;;;23.90;94.80;;;;;;5108926;28;20194;-40
2022/08/24 03:04:37;;;;;;;2.60;2.40;;;23.90;94.80;;;;;;5108981;27;20221;-40
2022/08/24 03:07:07;;;;;;;3.67;2.35;;;23.80;94.70;;;;;;5109548;27;20332;-40
2022/08/24 03:09:34;;;;;;;2.60;2.40;;;23.80;94.80;;;;;;5129457;27;20705;-40
2022/08/24 03:12:01;;;;;;;5.85;2.28;;;23.80;94.80;;;;;;5129425;27;20621;-40
2022/08/24 03:14:29;;;;;;;2.63;2.33;;;23.70;94.70;;;;;;5111508;27;20695;-40
2022/08/24 03:17:00;;;;;;;3.20;2.67;;;23.70;94.70;;;;;;5129538;27;20220;-40
2022/08/24 03:19:31;;;;;;;2.88;2.50;;;23.70;94.90;;;;;;5129119;27;20622;-40
2022/08/24 03:21:58;;;;;;;2.63;2.25;;;23.70;94.70;;;;;;5133833;27;20205;-40
2022/08/24 03:24:25;;;;;;;3.70;2.58;;;23.70;94.80;;;;;;5134304;27;20206;-40
2022/08/24 03:26:52;;;;;;;2.92;2.63;;;23.60;94.90;;;;;;5108393;28;20209;-40
2022/08/24 03:29:23;;;;;;;3.45;3.05;;;23.60;94.90;;;;;;5117156;27;20225;-40
2022/08/24 03:31:52;;;;;;;2.95;2.63;;;23.60;94.90;;;;;;5128811;27;20305;-40
2022/08/24 03:34:19;;;;;;;4.13;2.50;;;23.60;95.00;;;;;;5129581;27;20201;-40
2022/08/24 03:36:51;;;;;;;3.47;2.30;;;23.50;95.00;;;;;;5092914;28;20751;-40
2022/08/24 03:39:21;;;;;;;2.65;2.33;;;23.50;95.00;;;;;;5110192;27;20324;-40
2022/08/24 03:41:50;;;;;;;4.22;2.83;;;23.50;95.00;;;;;;5099752;28;20206;-39
2022/08/24 03:44:20;;;;;;;2.78;2.55;;;23.50;95.00;;;;;;5108657;28;20191;-40
2022/08/24 03:46:49;;;;;;;2.35;2.15;;;23.50;95.00;;;;;;5108308;28;20224;-40
2022/08/24 03:49:19;;;;;;;2.95;2.47;;;23.40;95.00;;;;;;5108267;28;20707;-40
2022/08/24 03:51:52;;;;;;;5.50;2.47;;;23.40;95.00;;;;;;5107337;28;20755;-40
2022/08/24 03:54:19;;;;;;;2.75;2.22;;;23.40;95.10;;;;;;5108159;28;20198;-40
2022/08/24 03:56:48;;;;;;;2.58;2.10;;;23.40;95.10;;;;;;5089858;28;20298;-40
2022/08/24 03:59:16;;;;;;;6.28;2.33;;;23.40;95.20;;;;;;5122165;27;20234;-40
2022/08/24 04:01:48;;;;;;;2.75;2.53;;;23.30;95.10;;;;;;5128373;27;20209;-41
2022/08/24 04:04:18;;;;;;;4.18;2.58;;;23.30;95.20;;;;;;5110222;27;20197;-39
2022/08/24 04:06:50;;;;;;;2.58;2.35;;;23.20;95.20;;;;;;5127479;27;20197;-39
2022/08/24 04:09:20;;;;;;;3.30;2.63;;;23.20;95.20;;;;;;5128164;27;20219;-39
2022/08/24 04:11:53;;;;;;;3.92;2.55;;;23.20;95.20;;;;;;5109052;27;20194;-41
2022/08/24 04:14:20;;;;;;;3.65;2.53;;;23.20;95.30;;;;;;5108008;28;20691;-40
2022/08/24 04:16:58;;;;;;;2.35;2.15;;;23.20;95.30;;;;;;5127723;27;20312;-40
2022/08/24 04:19:28;;;;;;;6.90;2.75;;;23.10;95.30;;;;;;5127988;27;20197;-41
2022/08/24 04:21:57;;;;;;;3.47;2.40;;;23.10;95.30;;;;;;5134288;27;20201;-40
2022/08/24 04:24:25;;;;;;;5.72;2.47;;;23.10;95.30;;;;;;5108711;27;20288;-39
2022/08/24 04:26:55;;;;;;;4.40;2.35;;;23.00;95.30;;;;;;5107488;28;20278;-39
2022/08/24 04:29:24;;;;;;;5.57;2.97;;;23.00;95.30;;;;;;5117307;27;20242;-39
2022/08/24 04:31:53;;;;;;;3.40;2.78;;;23.10;95.40;;;;;;5124636;27;20313;-38
2022/08/24 04:34:27;;;;;;;4.53;2.50;;;23.00;95.30;;;;;;5107228;28;20198;-39
2022/08/24 04:36:54;;;;;;;3.65;2.88;;;23.00;95.40;;;;;;5088926;28;20217;-39
2022/08/24 04:39:27;;;;;;;5.13;2.20;;;23.00;95.40;;;;;;5089165;28;20666;-38
2022/08/24 04:41:59;;;;;;;3.67;2.40;;;23.00;95.40;;;;;;5107307;28;20208;-39
2022/08/24 04:44:32;;;;;;;12.27;3.40;;;23.00;95.50;;;;;;5107003;28;20226;-40
2022/08/24 04:47:02;;;;;;;8.07;3.28;;;22.90;95.50;;;;;;5098835;28;20214;-40
2022/08/24 04:49:30;;;;;;;3.45;2.28;;;22.90;95.50;;;;;;5088858;28;20230;-40
2022/08/24 04:52:00;;;;;;;3.70;2.58;;;22.90;95.50;;;;;;5088251;28;20668;-40
2022/08/24 04:54:27;;;;;;;4.35;2.55;;;22.90;95.60;;;;;;5106952;28;20292;-40
2022/08/24 04:56:56;;;;;;;2.92;2.42;;;22.90;95.60;;;;;;5125519;27;20225;-40
2022/08/24 04:59:23;;;;;;;5.90;2.40;;;22.90;95.60;;;;;;5108500;27;20229;-40
2022/08/24 05:01:53;;;;;;;4.70;2.50;;;22.90;95.60;;;;;;5107108;27;20210;-39
2022/08/24 05:04:20;;;;;;;5.88;2.70;;;22.80;95.60;;;;;;5107977;27;20222;-40
2022/08/24 05:06:49;;;;;;;4.25;2.88;;;22.80;95.60;;;;;;5116676;27;20260;-40
2022/08/24 05:09:20;;;;;;;3.75;2.40;;;22.80;95.60;;;;;;5110765;27;20249;-40
2022/08/24 05:11:48;;;;;;;7.22;2.72;;;22.80;95.70;;;;;;5125589;27;20237;-40
2022/08/24 05:14:19;;;;;;;8.77;3.10;;;22.80;95.60;;;;;;5116168;27;20198;-40
2022/08/24 05:16:49;;;;;;;9.23;3.42;;;22.80;95.70;;;;;;5108149;27;20208;-40
2022/08/24 05:19:24;;;;;;;9.43;3.47;;;22.80;95.70;;;;;;5106951;28;20209;-40
2022/08/24 05:21:52;;;;;;;4.00;2.90;;;22.80;95.80;;;;;;5109370;27;20255;-40
2022/08/24 05:24:19;;;;;;;10.15;2.78;;;22.80;95.80;;;;;;5108506;27;20217;-40
2022/08/24 05:26:51;;;;;;;7.97;2.70;;;22.80;95.80;;;;;;5110372;27;20682;-39
2022/08/24 05:29:19;;;;;;;12.10;3.13;;;22.80;95.80;;;;;;5113466;27;20590;-39
2022/08/24 05:31:46;;;;;;;8.93;3.55;;;22.80;95.80;;;;;;5123593;27;20296;-39
2022/08/24 05:34:17;;;;;;;13.80;3.42;;;22.80;95.80;;;;;;5127049;27;20292;-39
2022/08/24 05:36:44;;;;;;;12.25;3.58;;;22.80;95.80;;;;;;5125264;27;20198;-39
2022/08/24 05:39:13;;;;;;;7.75;3.13;;;22.80;95.90;;;;;;5109389;27;20221;-39
2022/08/24 05:41:43;;;;;;;13.80;3.20;;;22.90;95.80;;;;;;5108456;27;20606;-39
2022/08/24 05:44:12;;;;;;;10.38;3.60;;;22.90;95.80;;;;;;5109962;27;20448;-39
2022/08/24 05:46:40;;;;;;;10.10;3.60;;;22.90;95.90;;;;;;5127843;27;20584;-39
2022/08/24 05:49:12;;;;;;;8.18;3.90;;;22.90;95.90;;;;;;5116616;27;20213;-38
2022/08/24 05:51:41;;;;;;;9.68;3.75;;;22.90;95.90;;;;;;5112189;27;20280;-38
2022/08/24 05:54:12;;;;;;;15.50;3.92;;;22.90;96.00;;;;;;5115925;27;20202;-38
2022/08/24 05:56:41;;;;;;;7.97;3.47;;;22.90;96.00;;;;;;5124733;27;20223;-38
2022/08/24 05:59:09;;;;;;;11.68;3.75;;;22.90;96.00;;;;;;5107238;27;20353;-39
2022/08/24 06:01:43;;;;;;;13.20;4.10;;;23.00;96.10;;;;;;5103948;27;20303;-39
2022/08/24 06:04:18;;;;;;;8.98;3.70;;;23.00;96.20;;;;;;5106595;27;20710;-38
2022/08/24 06:06:48;;;;;;;15.18;4.18;;;23.00;96.10;;;;;;5097995;28;20209;-39
2022/08/24 06:09:16;;;;;;;12.15;4.07;;;23.00;96.20;;;;;;5096436;28;20635;-39
2022/08/24 06:11:47;;;;;;;13.75;3.97;;;23.00;96.10;;;;;;5114398;27;20485;-39
2022/08/24 06:14:19;;;;;;;13.30;4.28;;;23.10;96.20;;;;;;5113630;27;20571;-38
2022/08/24 06:17:00;;;;;;;9.80;4.35;;;23.10;96.20;;;;;;5126881;28;20209;-38
2022/08/24 06:19:28;;;;;;;11.32;5.10;;;23.10;96.20;;;;;;5118451;28;20208;-39
2022/08/24 06:21:55;;;;;;;10.00;4.20;;;23.20;96.30;;;;;;5122469;27;20213;-40
2022/08/24 06:27:20;;;;;;;8.10;5.05;;;23.20;96.40;;;;;;5129113;27;20229;-38
2022/08/24 06:29:51;;;;;;;5.93;4.70;;;23.20;96.70;;;;;;5115888;27;20293;-38
2022/08/24 06:32:21;;;;;;;9.13;4.78;;;23.30;96.50;;;;;;5119831;27;20252;-38
2022/08/24 06:34:49;;;;;;;9.20;4.68;;;23.30;96.50;;;;;;5108830;28;20195;-39
2022/08/24 06:37:19;;;;;;;22.98;6.35;;;23.40;96.80;;;;;;5108597;27;20204;-39
2022/08/24 06:39:51;;;;;;;11.98;6.13;;;23.40;96.50;;;;;;5105420;28;20206;-38
2022/08/24 06:42:23;;;;;;;11.48;6.32;;;23.40;96.60;;;;;;5124451;27;20208;-39
2022/08/24 06:44:55;;;;;;;12.07;7.13;;;23.50;96.60;;;;;;5126826;28;20209;-37
2022/08/24 06:47:27;;;;;;;14.45;7.80;;;23.50;96.70;;;;;;5118599;27;20198;-40
2022/08/24 06:50:00;;;;;;;14.05;7.57;;;23.60;96.80;;;;;;5110164;27;20652;-38
2022/08/24 06:52:27;;;;;;;15.25;7.60;;;23.60;96.80;;;;;;5096779;28;20706;-38
2022/08/24 06:54:57;;;;;;;13.35;7.70;;;23.70;96.90;;;;;;5127619;27;20186;-38
2022/08/24 06:57:24;;;;;;;20.67;9.25;;;23.70;96.90;;;;;;5124019;27;20206;-38
2022/08/24 06:59:54;;;;;;;17.45;8.65;;;23.70;97.00;;;;;;5095606;28;20262;-38
2022/08/24 07:02:24;;;;;;;18.15;9.35;;;23.80;97.10;;;;;;5111856;27;20784;-38
2022/08/24 07:04:55;;;;;;;16.90;9.43;;;23.80;97.10;;;;;;5123687;28;20217;-38
2022/08/24 07:07:25;;;;;;;19.17;8.80;;;23.90;97.10;;;;;;5095665;28;20400;-40
2022/08/24 07:09:55;;;;;;;27.77;10.02;;;23.90;97.10;;;;;;5113952;28;20214;-40
2022/08/24 07:12:25;;;;;;;18.75;9.27;;;23.90;97.10;;;;;;5109184;27;20285;-40
2022/08/24 07:14:54;;;;;;;17.90;9.30;;;24.00;97.20;;;;;;5106025;27;20252;-43
2022/08/24 07:17:21;;;;;;;20.45;11.93;;;24.10;97.20;;;;;;5122077;27;20209;-43
2022/08/24 07:19:51;;;;;;;23.95;14.38;;;24.10;97.30;;;;;;5127921;27;20655;-48
2022/08/24 07:22:21;;;;;;;18.55;15.07;;;24.20;97.40;;;;;;5126200;27;20630;-47
2022/08/24 07:24:48;;;;;;;24.65;14.73;;;24.30;97.50;;;;;;5103013;27;20209;-48
2022/08/24 07:27:22;;;;;;;15.25;12.50;;;24.40;97.80;;;;;;5111247;27;20206;-48
2022/08/24 07:29:56;;;;;;;18.77;14.73;;;24.50;97.60;;;;;;5111447;27;20240;-47
2022/08/24 07:32:45;;;;;;;16.48;12.02;;;24.60;97.60;;;;;;5125598;27;20225;-49
2022/08/24 07:35:13;;;;;;;19.23;12.82;;;24.60;97.60;;;;;;5129967;27;20206;-48
2022/08/24 07:37:42;;;;;;;18.52;12.27;;;24.70;97.80;;;;;;5114382;27;20698;-50
2022/08/24 07:40:15;;;;;;;15.18;11.73;;;24.80;97.80;;;;;;5104954;27;20221;-49
2022/08/24 07:42:52;;;;;;;17.17;13.73;;;24.80;97.80;;;;;;5122591;27;20251;-50
2022/08/24 07:45:21;;;;;;;18.45;14.13;;;24.90;98.00;;;;;;5127500;27;20201;-50
2022/08/24 07:47:51;;;;;;;16.73;14.77;;;25.00;98.00;;;;;;5111720;27;20544;-51
2022/08/24 07:50:22;;;;;;;14.57;12.15;;;25.00;98.00;;;;;;5132169;27;20233;-52
2022/08/24 07:52:54;;;;;;;15.23;13.18;;;25.10;98.00;;;;;;5122868;27;20247;-49
2022/08/24 07:55:24;;;;;;;17.02;13.30;;;25.10;98.00;;;;;;5113910;27;20225;-49
2022/08/24 07:57:51;;;;;;;17.70;14.30;;;25.20;98.10;;;;;;5112749;27;20194;-50
2022/08/24 08:00:20;;;;;;;14.90;13.13;;;25.20;98.10;;;;;;5118438;27;20305;-49
2022/08/24 08:02:50;;;;;;;17.17;13.55;;;25.30;98.20;;;;;;5143523;27;20221;-50
2022/08/24 08:05:21;;;;;;;20.30;14.63;;;25.30;98.50;;;;;;5115944;27;20210;-51
2022/08/24 08:07:51;;;;;;;19.77;15.95;;;25.40;98.30;;;;;;5123793;27;20628;-50
2022/08/24 08:10:24;;;;;;;17.02;14.57;;;25.40;98.30;;;;;;5131053;27;20229;-50
2022/08/24 08:12:51;;;;;;;16.98;15.18;;;25.50;98.40;;;;;;5091033;27;20722;-49
2022/08/24 08:15:21;;;;;;;16.25;13.77;;;25.50;98.40;;;;;;5112702;27;20194;-49
2022/08/24 08:17:51;;;;;;;17.00;13.38;;;25.60;98.40;;;;;;5115817;27;20250;-49
2022/08/24 08:20:31;;;;;;;16.83;13.90;;;25.60;98.40;;;;;;5113865;27;20205;-50
2022/08/24 08:25:53;;;;;;;14.63;12.45;;;25.70;98.50;;;;;;5105860;27;20250;-50
2022/08/24 08:28:20;;;;;;;17.20;12.50;;;25.80;98.60;;;;;;5124745;27;20214;-38
2022/08/24 08:31:04;;;;;;;13.40;11.82;;;25.90;98.60;;;;;;5123189;27;20248;-38
2022/08/24 08:33:35;;;;;;;13.30;10.75;;;25.90;98.60;;;;;;5108762;28;20198;-39
2022/08/24 08:36:11;;;;;;;12.90;10.48;;;26.00;98.60;;;;;;5115761;27;20542;-39
2022/08/24 08:38:39;;;;;;;15.15;12.55;;;26.10;98.80;;;;;;5107740;28;20233;-52
2022/08/24 08:41:20;;;;;;;14.27;10.77;;;26.10;98.70;;;;;;5120927;27;20264;-51
2022/08/24 08:44:10;;;;;;;13.35;12.05;;;26.20;99.00;;;;;;5091907;27;20202;-51
2022/08/24 08:47:01;;;;;;;15.32;11.32;;;26.30;98.80;;;;;;5113956;27;20209;-51
2022/08/24 08:49:47;;;;;;;13.80;12.35;;;26.30;98.80;;;;;;5107570;27;20226;-48
2022/08/24 08:52:35;;;;;;;12.57;11.18;;;26.30;98.70;;;;;;5117632;27;20284;-48
2022/08/24 08:55:43;;;;;;;14.90;11.40;;;26.40;98.80;;;;;;5059758;27;20783;-48
2022/08/24 08:58:32;;;;;;;13.60;9.10;;;26.40;98.80;;;;;;5124907;27;20256;-47
2022/08/24 09:01:28;;;;;;;14.93;11.95;;;26.50;98.80;;;;;;5122907;27;20639;-48
2022/08/24 09:04:19;;;;;;;20.45;10.98;;;26.50;98.90;;;;;;5123457;27;20206;-49
2022/08/24 09:07:16;;;;;;;15.68;9.15;;;26.60;98.90;;;;;;5124307;27;20206;-47
2022/08/24 09:09:51;;;;;;;18.90;10.43;;;26.70;98.90;;;;;;5108109;27;20259;-46
2022/08/24 09:13:13;;;;;;;14.43;10.63;;;26.80;98.90;;;;;;5125072;27;20289;-48
2022/08/24 09:15:46;;;;;;;13.95;9.43;;;26.80;98.90;;;;;;5063883;27;20209;-48
2022/08/24 09:18:31;;;;;;;18.33;9.93;;;26.90;98.80;;;;;;5090492;27;20253;-38
2022/08/24 09:21:19;;;;;;;9.98;8.93;;;26.90;98.80;;;;;;5117193;27;20530;-38
2022/08/24 09:24:14;;;;;;;11.25;9.23;;;27.00;98.70;;;;;;5109268;27;20624;-38
2022/08/24 09:27:20;;;;;;;9.70;7.88;;;27.10;98.60;;;;;;5110773;27;20267;-39
2022/08/24 09:30:17;;;;;;;9.25;7.10;;;27.20;98.50;;;;;;5122077;27;20221;-38
2022/08/24 09:32:58;;;;;;;9.77;6.35;;;27.20;98.50;;;;;;5128642;27;20198;-38
2022/08/24 09:35:50;;;;;;;12.25;6.68;;;27.30;98.60;;;;;;5118400;27;20428;-38
2022/08/24 09:38:30;;;;;;;7.50;5.53;;;27.30;98.40;;;;;;5094132;28;20578;-38
2022/08/24 09:41:22;;;;;;;15.43;6.15;;;27.40;98.60;;;;;;5097166;27;20292;-38
2022/08/24 09:44:05;;;;;;;5.82;4.53;;;27.50;98.20;;;;;;5123557;27;20489;-39
2022/08/24 09:47:11;;;;;;;8.43;4.05;;;27.60;98.20;;;;;;5104202;27;20206;-39
2022/08/24 09:50:05;;;;;;;6.07;3.40;;;27.60;98.20;;;;;;5104570;27;20225;-38
2022/08/24 09:52:38;;;;;;;5.35;4.47;;;27.70;98.20;;;;;;5118032;27;20548;-39
2022/08/24 09:55:14;;;;;;;9.82;3.72;;;27.70;97.60;;;;;;5113461;27;20284;-39
2022/08/24 09:58:13;;;;;;;5.95;3.15;;;27.80;97.90;;;;;;5096000;27;20197;-38
2022/08/24 10:00:46;;;;;;;4.53;4.00;;;27.90;98.20;;;;;;5089025;28;20762;-39
2022/08/24 10:03:37;;;;;;;4.78;3.97;;;27.90;97.70;;;;;;5118914;27;20289;-39
2022/08/24 10:06:14;;;;;;;4.65;3.70;;;28.00;97.40;;;;;;5112743;27;20234;-39
2022/08/24 10:09:12;;;;;;;7.28;3.80;;;28.10;97.30;;;;;;5118152;27;20234;-39
2022/08/24 10:12:23;;;;;;;7.30;3.70;;;28.10;97.60;;;;;;5113857;27;20257;-48
2022/08/24 10:15:11;;;;;;;5.00;2.67;;;28.20;97.20;;;;;;5007899;28;20698;-48
2022/08/24 10:18:06;;;;;;;7.25;3.67;;;28.20;97.70;;;;;;5131896;27;20205;-50
2022/08/24 10:20:49;;;;;;;4.72;2.97;;;28.30;97.10;;;;;;5111753;28;20233;-50
2022/08/24 10:23:57;;;;;;;4.30;2.97;;;28.30;97.50;;;;;;5088701;27;20570;-49
2022/08/24 10:26:33;;;;;;;6.53;2.67;;;28.40;97.30;;;;;;5117233;28;20196;-50
2022/08/24 10:29:06;;;;;;;4.20;2.35;;;28.40;97.60;;;;;;5118194;28;20740;-52
2022/08/24 10:31:56;;;;;;;2.53;2.05;;;28.50;97.70;;;;;;5108352;28;20794;-51
2022/08/24 10:34:59;;;;;;;2.60;1.77;;;28.50;97.50;;;;;;5115983;28;20203;-49
2022/08/24 10:41:00;;;;;;;8.60;2.00;;;28.70;96.30;;;;;;5106324;27;20296;-50
2022/08/24 10:43:45;;;;;;;57.50;7.55;;;28.60;96.50;;;;;;5109368;28;20210;-50
2022/08/24 10:46:37;;;;;;;8.68;2.65;;;28.70;96.60;;;;;;5110985;27;20216;-50
2022/08/24 10:49:38;;;;;;;4.53;1.60;;;28.70;96.90;;;;;;5117393;27;20692;-53
2022/08/24 10:52:30;;;;;;;4.10;1.80;;;28.70;97.10;;;;;;5110163;27;20281;-49
2022/08/24 10:55:15;;;;;;;4.05;1.58;;;28.80;96.80;;;;;;5118592;27;20238;-49
2022/08/24 10:58:09;;;;;;;3.00;1.30;;;28.80;96.60;;;;;;5099964;27;20194;-50
2022/08/24 11:00:36;;;;;;;3.53;1.75;;;28.80;96.00;;;;;;5070007;27;20229;-52
2022/08/24 11:03:17;;;;;;;2.92;1.30;;;28.80;96.20;;;;;;5117303;27;20220;-51
2022/08/24 11:05:52;;;;;;;3.60;1.27;;;28.80;96.00;;;;;;5092421;27;20293;-51
2022/08/24 11:08:26;;;;;;;3.42;1.10;;;28.90;96.30;;;;;;5119009;27;20209;-51
2022/08/24 11:11:05;;;;;;;2.55;1.40;;;28.90;96.60;;;;;;5114094;27;20217;-52
2022/08/24 11:13:49;;;;;;;2.60;1.40;;;28.90;96.20;;;;;;5110577;27;20271;-51
2022/08/24 11:16:37;;;;;;;9.80;2.78;;;28.90;96.10;;;;;;5112837;27;20630;-39
2022/08/24 11:19:24;;;;;;;2.20;1.30;;;28.90;96.80;;;;;;5125027;27;20316;-39
2022/08/24 11:21:56;;;;;;;7.38;1.90;;;29.00;96.40;;;;;;5111956;27;20888;-39
2022/08/24 11:24:45;;;;;;;4.97;1.38;;;29.10;95.30;;;;;;5110173;28;20206;-51
2022/08/24 11:27:15;;;;;;;4.63;1.27;;;29.10;94.80;;;;;;5114212;27;20198;-51
2022/08/24 11:29:48;;;;;;;4.55;1.27;;;29.10;95.80;;;;;;5111715;27;20210;-51
2022/08/24 11:32:44;;;;;;;19.70;3.13;;;29.20;96.00;;;;;;5129418;27;20663;-50
2022/08/24 11:35:20;;;;;;;5.05;1.63;;;29.20;95.10;;;;;;5110988;27;20228;-50
2022/08/24 11:37:56;;;;;;;2.40;0.90;;;29.20;95.70;;;;;;5115242;27;20245;-49
2022/08/24 11:40:32;;;;;;;4.45;1.10;;;29.20;95.90;;;;;;5110880;27;20197;-50
2022/08/24 11:43:31;;;;;;;6.00;2.08;;;29.20;95.50;;;;;;5140558;27;20209;-49
2022/08/24 11:46:10;;;;;;;2.90;1.27;;;29.30;94.80;;;;;;5103867;27;20727;-50
2022/08/24 11:48:50;;;;;;;6.47;1.40;;;29.40;95.00;;;;;;5124652;27;20213;-50
2022/08/24 11:51:34;;;;;;;4.38;1.42;;;29.40;95.30;;;;;;5107844;27;20880;-50
2022/08/24 11:54:11;;;;;;;5.78;1.48;;;29.40;95.40;;;;;;5104666;27;20231;-39
2022/08/24 11:57:16;;;;;;;3.55;1.23;;;29.40;95.00;;;;;;5128614;27;20213;-39
2022/08/24 12:00:12;;;;;;;27.33;4.50;;;29.50;95.60;;;;;;5121321;27;20278;-39
2022/08/24 12:03:01;;;;;;;32.75;5.03;;;29.50;95.50;;;;;;5120665;27;20658;-39
2022/08/24 12:05:54;;;;;;;13.50;2.38;;;29.60;94.80;;;;;;5115631;27;20267;-39
2022/08/24 12:08:30;;;;;;;11.45;2.40;;;29.60;94.90;;;;;;5114854;27;20198;-39
2022/08/24 12:11:02;;;;;;;6.97;1.70;;;29.60;94.00;;;;;;5113015;27;20713;-39
2022/08/24 12:13:42;;;;;;;6.65;1.83;;;29.70;94.90;;;;;;5125072;27;20224;-39
2022/08/24 12:16:19;;;;;;;7.95;1.98;;;29.70;94.70;;;;;;5129646;27;20232;-40
2022/08/24 12:19:06;;;;;;;12.07;2.28;;;29.70;94.90;;;;;;5125281;27;20185;-39
2022/08/24 12:21:39;;;;;;;9.35;1.90;;;29.80;95.00;;;;;;5114870;27;20220;-39
2022/08/24 12:24:21;;;;;;;7.18;1.67;;;29.80;95.10;;;;;;5094091;27;20233;-38
2022/08/24 12:26:55;;;;;;;2.08;1.30;;;29.80;95.20;;;;;;5110799;27;20206;-38
2022/08/24 12:29:39;;;;;;;2.40;1.20;;;29.80;95.00;;;;;;5122946;27;20218;-37
2022/08/24 12:32:12;;;;;;;2.53;1.00;;;29.80;94.70;;;;;;5110878;27;20226;-38
2022/08/24 12:35:08;;;;;;;7.90;2.53;;;29.80;94.50;;;;;;5113637;27;20204;-38
2022/08/24 12:37:44;;;;;;;3.03;1.30;;;29.90;94.40;;;;;;5073156;28;20255;-38
2022/08/24 12:40:32;;;;;;;2.20;1.30;;;29.90;94.10;;;;;;5117084;27;20321;-37
2022/08/24 12:43:22;;;;;;;4.18;1.70;;;29.90;94.00;;;;;;5122214;27;20297;-39
2022/08/24 12:45:58;;;;;;;3.00;1.50;;;30.00;94.30;;;;;;5121489;27;20254;-40
2022/08/24 12:48:30;;;;;;;2.58;1.40;;;30.00;93.70;;;;;;5119608;27;20678;-38
2022/08/24 12:51:37;;;;;;;11.48;2.13;;;30.00;94.40;;;;;;5099872;27;20656;-38
2022/08/24 12:54:30;;;;;;;10.75;2.60;;;30.10;94.30;;;;;;5123495;27;20661;-38
2022/08/24 12:57:25;;;;;;;11.35;2.50;;;30.20;94.50;;;;;;5110710;27;20237;-38
2022/08/24 13:00:05;;;;;;;5.78;1.80;;;30.30;93.20;;;;;;5110404;27;20551;-38
2022/08/24 13:02:44;;;;;;;9.48;2.10;;;30.30;94.30;;;;;;5116532;27;20205;-39
2022/08/24 13:05:19;;;;;;;5.50;2.05;;;30.40;92.70;;;;;;5110923;27;20202;-38
2022/08/24 13:07:53;;;;;;;3.80;1.65;;;30.40;93.50;;;;;;5110017;27;20596;-38
2022/08/24 13:10:23;;;;;;;4.45;1.98;;;30.40;93.90;;;;;;5124904;27;20198;-46
2022/08/24 13:13:03;;;;;;;3.35;1.35;;;30.40;94.10;;;;;;5127735;27;20240;-45
2022/08/24 13:15:30;;;;;;;2.38;1.60;;;30.50;94.30;;;;;;5126731;27;20257;-46
2022/08/24 13:18:06;;;;;;;4.43;1.33;;;30.50;94.40;;;;;;5110297;27;20197;-46
2022/08/24 13:20:34;;;;;;;4.30;1.63;;;30.60;94.50;;;;;;5114636;27;20236;-46
2022/08/24 13:23:14;;;;;;;4.40;1.60;;;30.60;94.20;;;;;;5086363;28;20214;-47
2022/08/24 13:25:50;;;;;;;6.28;1.50;;;30.60;94.30;;;;;;5118474;27;20216;-47
2022/08/24 13:28:22;;;;;;;11.45;2.47;;;30.70;94.30;;;;;;5128716;27;20211;-46
2022/08/24 13:31:16;;;;;;;16.70;2.75;;;30.70;94.50;;;;;;5109702;27;20596;-45
2022/08/24 13:34:23;;;;;;;10.52;2.78;;;30.80;94.80;;;;;;5117421;27;20198;-47
2022/08/24 13:37:14;;;;;;;3.55;1.75;;;30.90;94.50;;;;;;5120069;27;20205;-46